French Lick, IN (47432)

10:34 AM EDT on August 31, 2016 (GMT -0400)
fL | | Change Station

Elev 758 ft 38.53 °N, 86.65 °W | Updated 15 minutes ago

Mostly Cloudy
Mostly Cloudy
79.8 °F
Feels Like 84 °F
N
0.0
Wind Variable Wind from WNW
Gusts 4.0 mph

Today
High -- | Low -- °F
--% Chance of Precip.
Yesterday
High -- | Low -- °F
Precip. -- in
Pressure 30.03 in
Visibility 10.0 miles
Clouds Scattered Clouds 4000 ft
Mostly Cloudy 5500 ft
Heat Index 84 °F
Dew Point 74 °F
Humidity 81%
Rainfall 0.00 in
Snow Depth Not available.
7:15 AM 8:17 PM
Waning Crescent, 1% visible
METAR KHNB 311415Z AUTO 31007KT 10SM SCT040 BKN055 27/22 A3003 RMK AO1
Pressure 30.03 in
Visibility 10.0 miles
Clouds Scattered Clouds 4000 ft
Mostly Cloudy 5500 ft
Heat Index 84 °F
Dew Point 74 °F
Humidity 81%
Rainfall 0.00 in
Snow Depth Not available.
7:15 AM 8:17 PM
Waning Crescent, 1% visible
METAR KHNB 311415Z AUTO 31007KT 10SM SCT040 BKN055 27/22 A3003 RMK AO1

10-Day Weather Forecast

Almanac

Astronomy

Aug. 31, 2016 Rise Set
Actual Time
Civil Twilight
Nautical Twilight
Astronomical Twilight
Moon
Length of Visible Light
Length of Day
Tomorrow will be .
, % of the Moon is Illuminated

Today's Extremes

State Highs State Lows

Community

WunderPhotos

Upload Photos

1,936,092 photos uploaded!

WunderBlog® & News

Nearby

Air Quality

  Air Quality AQ Index Pollutant
Not available.

Snow Depth

Station Depth Elevation

Earthquake Activity

City Distance Mag. Time & Date
Minimum magnitude displayed is 2.5.

Coastal Water Temperatures

Place Temperature

Stations

Nearby Weather Stations

Station Location Temp. Windchill Dew Point Humidity Wind Precip. Elev Updated Type
                   

Watches & Warnings

There are currently no watches in effect.